sensor_id;sensor_type;location;lat;lon;timestamp;temperature;humidity
68217;DHT22;55037;52.354;4.992;2022-10-16T00:01:39;15.40;81.60
68217;DHT22;55037;52.354;4.992;2022-10-16T00:04:06;15.40;81.60
68217;DHT22;55037;52.354;4.992;2022-10-16T00:06:33;15.40;81.60
68217;DHT22;55037;52.354;4.992;2022-10-16T00:09:00;15.40;81.50
68217;DHT22;55037;52.354;4.992;2022-10-16T00:11:32;15.70;81.60
68217;DHT22;55037;52.354;4.992;2022-10-16T00:14:02;15.40;81.60
68217;DHT22;55037;52.354;4.992;2022-10-16T00:16:30;15.40;81.40
68217;DHT22;55037;52.354;4.992;2022-10-16T00:18:58;15.30;81.20
68217;DHT22;55037;52.354;4.992;2022-10-16T00:21:27;15.30;81.00
68217;DHT22;55037;52.354;4.992;2022-10-16T00:24:04;15.30;81.00
68217;DHT22;55037;52.354;4.992;2022-10-16T00:26:36;15.30;81.10
68217;DHT22;55037;52.354;4.992;2022-10-16T00:29:04;15.20;81.00
68217;DHT22;55037;52.354;4.992;2022-10-16T00:31:32;15.30;80.90
68217;DHT22;55037;52.354;4.992;2022-10-16T00:33:59;15.20;80.80
68217;DHT22;55037;52.354;4.992;2022-10-16T00:36:27;15.20;81.20
68217;DHT22;55037;52.354;4.992;2022-10-16T00:38:56;15.20;81.20
68217;DHT22;55037;52.354;4.992;2022-10-16T00:41:28;15.20;81.40
68217;DHT22;55037;52.354;4.992;2022-10-16T00:44:00;15.20;81.10
68217;DHT22;55037;52.354;4.992;2022-10-16T00:46:39;15.20;81.20
68217;DHT22;55037;52.354;4.992;2022-10-16T00:51:42;15.20;81.00
68217;DHT22;55037;52.354;4.992;2022-10-16T00:54:13;15.20;81.00
68217;DHT22;55037;52.354;4.992;2022-10-16T00:56:42;15.10;80.80
68217;DHT22;55037;52.354;4.992;2022-10-16T00:59:23;15.10;81.00
68217;DHT22;55037;52.354;4.992;2022-10-16T01:01:52;15.10;80.50
68217;DHT22;55037;52.354;4.992;2022-10-16T01:04:20;15.10;81.10
68217;DHT22;55037;52.354;4.992;2022-10-16T01:12:47;15.10;80.60
68217;DHT22;55037;52.354;4.992;2022-10-16T01:18:02;15.00;81.20
68217;DHT22;55037;52.354;4.992;2022-10-16T01:20:36;15.10;81.00
68217;DHT22;55037;52.354;4.992;2022-10-16T01:26:19;15.10;80.80
68217;DHT22;55037;52.354;4.992;2022-10-16T01:29:09;15.10;80.80
68217;DHT22;55037;52.354;4.992;2022-10-16T01:31:39;15.10;80.30
68217;DHT22;55037;52.354;4.992;2022-10-16T01:34:21;15.20;80.50
68217;DHT22;55037;52.354;4.992;2022-10-16T01:37:00;15.10;80.90
68217;DHT22;55037;52.354;4.992;2022-10-16T01:39:31;15.10;81.00
68217;DHT22;55037;52.354;4.992;2022-10-16T01:42:06;15.10;81.00
68217;DHT22;55037;52.354;4.992;2022-10-16T01:44:36;15.10;81.10
68217;DHT22;55037;52.354;4.992;2022-10-16T01:47:08;15.10;82.30
68217;DHT22;55037;52.354;4.992;2022-10-16T01:49:38;15.10;81.60
68217;DHT22;55037;52.354;4.992;2022-10-16T01:52:10;15.00;81.60
68217;DHT22;55037;52.354;4.992;2022-10-16T01:54:41;15.00;82.10
68217;DHT22;55037;52.354;4.992;2022-10-16T01:57:10;15.10;82.20
68217;DHT22;55037;52.354;4.992;2022-10-16T01:59:43;15.10;82.10
68217;DHT22;55037;52.354;4.992;2022-10-16T02:02:12;15.10;82.20
68217;DHT22;55037;52.354;4.992;2022-10-16T02:04:50;15.10;82.40
68217;DHT22;55037;52.354;4.992;2022-10-16T02:07:20;15.00;83.40
68217;DHT22;55037;52.354;4.992;2022-10-16T02:09:47;14.90;82.70
68217;DHT22;55037;52.354;4.992;2022-10-16T02:12:34;15.00;83.10
68217;DHT22;55037;52.354;4.992;2022-10-16T02:15:02;15.00;83.50
68217;DHT22;55037;52.354;4.992;2022-10-16T02:17:30;14.90;83.60
68217;DHT22;55037;52.354;4.992;2022-10-16T02:19:57;14.90;84.80
68217;DHT22;55037;52.354;4.992;2022-10-16T02:22:30;15.00;84.20
68217;DHT22;55037;52.354;4.992;2022-10-16T02:25:03;14.90;84.30
68217;DHT22;55037;52.354;4.992;2022-10-16T02:27:46;14.90;84.60
68217;DHT22;55037;52.354;4.992;2022-10-16T02:30:35;14.90;84.70
68217;DHT22;55037;52.354;4.992;2022-10-16T02:33:06;14.90;85.20
68217;DHT22;55037;52.354;4.992;2022-10-16T02:35:34;14.80;85.20
68217;DHT22;55037;52.354;4.992;2022-10-16T02:38:02;14.80;85.20
68217;DHT22;55037;52.354;4.992;2022-10-16T02:40:30;14.90;85.30
68217;DHT22;55037;52.354;4.992;2022-10-16T02:42:57;14.70;85.40
68217;DHT22;55037;52.354;4.992;2022-10-16T02:45:26;14.70;86.00
68217;DHT22;55037;52.354;4.992;2022-10-16T02:47:53;14.60;86.60
68217;DHT22;55037;52.354;4.992;2022-10-16T02:50:20;14.50;87.10
68217;DHT22;55037;52.354;4.992;2022-10-16T02:52:48;14.50;87.00
68217;DHT22;55037;52.354;4.992;2022-10-16T02:55:15;14.50;87.10
68217;DHT22;55037;52.354;4.992;2022-10-16T02:57:42;14.50;87.00
68217;DHT22;55037;52.354;4.992;2022-10-16T03:00:12;14.50;87.20
68217;DHT22;55037;52.354;4.992;2022-10-16T03:02:40;14.50;88.10
68217;DHT22;55037;52.354;4.992;2022-10-16T03:05:08;14.40;87.20
68217;DHT22;55037;52.354;4.992;2022-10-16T03:07:36;14.40;87.70
68217;DHT22;55037;52.354;4.992;2022-10-16T03:10:03;14.30;88.10
68217;DHT22;55037;52.354;4.992;2022-10-16T03:12:31;14.30;88.20
68217;DHT22;55037;52.354;4.992;2022-10-16T03:14:58;14.40;88.20
68217;DHT22;55037;52.354;4.992;2022-10-16T03:17:25;14.40;88.10
68217;DHT22;55037;52.354;4.992;2022-10-16T03:19:53;14.40;87.80
68217;DHT22;55037;52.354;4.992;2022-10-16T03:22:20;14.40;87.80
68217;DHT22;55037;52.354;4.992;2022-10-16T03:24:47;14.40;87.70
68217;DHT22;55037;52.354;4.992;2022-10-16T03:27:14;14.40;87.80
68217;DHT22;55037;52.354;4.992;2022-10-16T03:29:42;14.40;87.80
68217;DHT22;55037;52.354;4.992;2022-10-16T03:32:09;14.40;87.90
68217;DHT22;55037;52.354;4.992;2022-10-16T03:34:36;14.40;88.00
68217;DHT22;55037;52.354;4.992;2022-10-16T03:37:03;14.30;88.00
68217;DHT22;55037;52.354;4.992;2022-10-16T03:39:31;14.30;88.10
68217;DHT22;55037;52.354;4.992;2022-10-16T03:41:58;14.30;88.30
68217;DHT22;55037;52.354;4.992;2022-10-16T03:44:25;14.30;88.40
68217;DHT22;55037;52.354;4.992;2022-10-16T03:46:52;14.30;88.50
68217;DHT22;55037;52.354;4.992;2022-10-16T03:49:19;14.30;88.60
68217;DHT22;55037;52.354;4.992;2022-10-16T03:51:46;14.30;88.60
68217;DHT22;55037;52.354;4.992;2022-10-16T03:54:13;14.30;88.70
68217;DHT22;55037;52.354;4.992;2022-10-16T03:56:40;14.20;88.70
68217;DHT22;55037;52.354;4.992;2022-10-16T03:59:08;14.20;88.90
68217;DHT22;55037;52.354;4.992;2022-10-16T04:01:35;14.20;89.00
68217;DHT22;55037;52.354;4.992;2022-10-16T04:04:02;14.20;89.10
68217;DHT22;55037;52.354;4.992;2022-10-16T04:06:29;14.20;89.20
68217;DHT22;55037;52.354;4.992;2022-10-16T04:08:56;14.20;89.30
68217;DHT22;55037;52.354;4.992;2022-10-16T04:11:23;14.20;89.40
68217;DHT22;55037;52.354;4.992;2022-10-16T04:13:50;14.30;89.40
68217;DHT22;55037;52.354;4.992;2022-10-16T04:16:18;14.30;89.50
68217;DHT22;55037;52.354;4.992;2022-10-16T04:18:45;14.00;89.20
68217;DHT22;55037;52.354;4.992;2022-10-16T04:21:12;14.40;89.00
68217;DHT22;55037;52.354;4.992;2022-10-16T04:23:39;14.30;88.90
68217;DHT22;55037;52.354;4.992;2022-10-16T04:26:06;14.30;89.00
68217;DHT22;55037;52.354;4.992;2022-10-16T04:28:33;14.30;89.30
68217;DHT22;55037;52.354;4.992;2022-10-16T04:31:03;14.30;89.60
68217;DHT22;55037;52.354;4.992;2022-10-16T04:33:31;14.30;89.60
68217;DHT22;55037;52.354;4.992;2022-10-16T04:36:00;14.30;90.00
68217;DHT22;55037;52.354;4.992;2022-10-16T04:38:28;14.30;89.50
68217;DHT22;55037;52.354;4.992;2022-10-16T04:40:55;14.30;89.60
68217;DHT22;55037;52.354;4.992;2022-10-16T04:43:22;14.30;90.20
68217;DHT22;55037;52.354;4.992;2022-10-16T04:45:49;14.30;89.40
68217;DHT22;55037;52.354;4.992;2022-10-16T04:48:18;14.30;89.40
68217;DHT22;55037;52.354;4.992;2022-10-16T04:50:45;14.30;89.60
68217;DHT22;55037;52.354;4.992;2022-10-16T04:53:17;14.30;89.70
68217;DHT22;55037;52.354;4.992;2022-10-16T04:55:44;14.30;89.70
68217;DHT22;55037;52.354;4.992;2022-10-16T04:58:12;14.30;89.80
68217;DHT22;55037;52.354;4.992;2022-10-16T05:00:39;14.40;89.80
68217;DHT22;55037;52.354;4.992;2022-10-16T05:03:06;14.40;89.50
68217;DHT22;55037;52.354;4.992;2022-10-16T05:05:36;14.50;89.40
68217;DHT22;55037;52.354;4.992;2022-10-16T05:08:04;14.40;89.20
68217;DHT22;55037;52.354;4.992;2022-10-16T05:10:31;14.20;89.40
68217;DHT22;55037;52.354;4.992;2022-10-16T05:12:58;14.10;90.10
68217;DHT22;55037;52.354;4.992;2022-10-16T05:15:25;13.90;90.70
68217;DHT22;55037;52.354;4.992;2022-10-16T05:17:54;13.80;91.10
68217;DHT22;55037;52.354;4.992;2022-10-16T05:20:22;13.80;91.40
68217;DHT22;55037;52.354;4.992;2022-10-16T05:22:49;13.70;91.70
68217;DHT22;55037;52.354;4.992;2022-10-16T05:25:17;13.70;92.00
68217;DHT22;55037;52.354;4.992;2022-10-16T05:27:47;13.60;92.10
68217;DHT22;55037;52.354;4.992;2022-10-16T05:30:16;13.60;92.20
68217;DHT22;55037;52.354;4.992;2022-10-16T05:32:50;13.60;92.40
68217;DHT22;55037;52.354;4.992;2022-10-16T05:35:19;13.90;92.60
68217;DHT22;55037;52.354;4.992;2022-10-16T05:37:46;13.70;92.20
68217;DHT22;55037;52.354;4.992;2022-10-16T05:40:14;13.70;92.50
68217;DHT22;55037;52.354;4.992;2022-10-16T05:42:42;13.70;92.60
68217;DHT22;55037;52.354;4.992;2022-10-16T05:45:11;16.00;93.20
68217;DHT22;55037;52.354;4.992;2022-10-16T05:47:39;13.70;92.70
68217;DHT22;55037;52.354;4.992;2022-10-16T05:50:07;13.80;92.60
68217;DHT22;55037;52.354;4.992;2022-10-16T05:52:34;13.70;92.70
68217;DHT22;55037;52.354;4.992;2022-10-16T05:55:01;13.80;92.80
68217;DHT22;55037;52.354;4.992;2022-10-16T05:57:29;13.80;92.70
68217;DHT22;55037;52.354;4.992;2022-10-16T05:59:56;13.80;92.80
68217;DHT22;55037;52.354;4.992;2022-10-16T06:02:24;13.70;92.90
68217;DHT22;55037;52.354;4.992;2022-10-16T06:04:54;13.70;93.00
68217;DHT22;55037;52.354;4.992;2022-10-16T06:07:22;13.70;93.00
68217;DHT22;55037;52.354;4.992;2022-10-16T06:09:51;13.70;93.10
68217;DHT22;55037;52.354;4.992;2022-10-16T06:12:19;13.70;93.00
68217;DHT22;55037;52.354;4.992;2022-10-16T06:14:46;13.70;93.10
68217;DHT22;55037;52.354;4.992;2022-10-16T06:17:14;13.70;93.30
68217;DHT22;55037;52.354;4.992;2022-10-16T06:19:42;13.80;93.20
68217;DHT22;55037;52.354;4.992;2022-10-16T06:22:09;13.80;93.30
68217;DHT22;55037;52.354;4.992;2022-10-16T06:24:36;13.80;93.30
68217;DHT22;55037;52.354;4.992;2022-10-16T06:27:04;13.80;93.30
68217;DHT22;55037;52.354;4.992;2022-10-16T06:29:31;13.90;93.50
68217;DHT22;55037;52.354;4.992;2022-10-16T06:31:59;13.90;93.40
68217;DHT22;55037;52.354;4.992;2022-10-16T06:34:26;13.90;93.40
68217;DHT22;55037;52.354;4.992;2022-10-16T06:36:53;14.00;93.40
68217;DHT22;55037;52.354;4.992;2022-10-16T06:39:21;14.10;93.40
68217;DHT22;55037;52.354;4.992;2022-10-16T06:41:48;14.20;93.10
68217;DHT22;55037;52.354;4.992;2022-10-16T06:44:15;14.20;93.00
68217;DHT22;55037;52.354;4.992;2022-10-16T06:46:43;14.30;92.80
68217;DHT22;55037;52.354;4.992;2022-10-16T06:49:10;14.40;92.70
68217;DHT22;55037;52.354;4.992;2022-10-16T06:51:37;14.40;92.40
68217;DHT22;55037;52.354;4.992;2022-10-16T06:54:09;14.40;92.40
68217;DHT22;55037;52.354;4.992;2022-10-16T06:56:37;14.50;92.20
68217;DHT22;55037;52.354;4.992;2022-10-16T06:59:04;14.60;92.00
68217;DHT22;55037;52.354;4.992;2022-10-16T07:01:32;14.60;91.70
68217;DHT22;55037;52.354;4.992;2022-10-16T07:04:00;14.60;91.60
68217;DHT22;55037;52.354;4.992;2022-10-16T07:06:31;14.60;91.60
68217;DHT22;55037;52.354;4.992;2022-10-16T07:09:05;14.50;91.60
68217;DHT22;55037;52.354;4.992;2022-10-16T07:11:32;14.60;92.10
68217;DHT22;55037;52.354;4.992;2022-10-16T07:14:00;14.60;91.60
68217;DHT22;55037;52.354;4.992;2022-10-16T07:16:29;14.70;91.30
68217;DHT22;55037;52.354;4.992;2022-10-16T07:18:58;14.60;91.00
68217;DHT22;55037;52.354;4.992;2022-10-16T07:21:29;14.60;91.00
68217;DHT22;55037;52.354;4.992;2022-10-16T07:23:59;14.60;91.20
68217;DHT22;55037;52.354;4.992;2022-10-16T07:26:29;14.60;91.30
68217;DHT22;55037;52.354;4.992;2022-10-16T07:28:57;14.70;91.30
68217;DHT22;55037;52.354;4.992;2022-10-16T07:31:25;14.80;91.00
68217;DHT22;55037;52.354;4.992;2022-10-16T07:33:53;14.90;90.50
68217;DHT22;55037;52.354;4.992;2022-10-16T07:36:20;14.80;90.80
68217;DHT22;55037;52.354;4.992;2022-10-16T07:38:48;14.90;90.30
68217;DHT22;55037;52.354;4.992;2022-10-16T07:41:17;14.90;90.20
68217;DHT22;55037;52.354;4.992;2022-10-16T07:43:50;15.00;90.10
68217;DHT22;55037;52.354;4.992;2022-10-16T07:46:18;15.10;89.90
68217;DHT22;55037;52.354;4.992;2022-10-16T07:48:46;15.20;89.30
68217;DHT22;55037;52.354;4.992;2022-10-16T07:51:16;15.30;88.90
68217;DHT22;55037;52.354;4.992;2022-10-16T07:53:44;15.40;87.70
68217;DHT22;55037;52.354;4.992;2022-10-16T07:56:12;15.50;88.00
68217;DHT22;55037;52.354;4.992;2022-10-16T07:58:39;15.60;87.20
68217;DHT22;55037;52.354;4.992;2022-10-16T08:01:12;15.70;87.00
68217;DHT22;55037;52.354;4.992;2022-10-16T08:03:50;16.10;89.30
68217;DHT22;55037;52.354;4.992;2022-10-16T08:06:20;17.40;83.80
68217;DHT22;55037;52.354;4.992;2022-10-16T08:08:55;19.60;76.90
68217;DHT22;55037;52.354;4.992;2022-10-16T08:11:23;21.60;68.80
68217;DHT22;55037;52.354;4.992;2022-10-16T08:13:50;22.40;64.10
68217;DHT22;55037;52.354;4.992;2022-10-16T08:16:17;22.50;63.20
68217;DHT22;55037;52.354;4.992;2022-10-16T08:18:44;22.80;61.90
68217;DHT22;55037;52.354;4.992;2022-10-16T08:21:15;23.20;60.20
68217;DHT22;55037;52.354;4.992;2022-10-16T08:23:47;23.30;59.40
68217;DHT22;55037;52.354;4.992;2022-10-16T08:26:25;24.00;58.50
68217;DHT22;55037;52.354;4.992;2022-10-16T08:28:52;25.30;53.70
68217;DHT22;55037;52.354;4.992;2022-10-16T08:31:20;25.50;50.50
68217;DHT22;55037;52.354;4.992;2022-10-16T08:33:47;25.70;51.50
68217;DHT22;55037;52.354;4.992;2022-10-16T08:36:16;26.30;48.00
68217;DHT22;55037;52.354;4.992;2022-10-16T08:38:43;27.10;48.30
68217;DHT22;55037;52.354;4.992;2022-10-16T08:44:02;28.60;43.60
68217;DHT22;55037;52.354;4.992;2022-10-16T08:46:33;28.60;42.90
68217;DHT22;55037;52.354;4.992;2022-10-16T08:49:03;28.70;42.60
68217;DHT22;55037;52.354;4.992;2022-10-16T08:51:32;31.00;37.60
68217;DHT22;55037;52.354;4.992;2022-10-16T08:54:18;32.00;34.80
68217;DHT22;55037;52.354;4.992;2022-10-16T08:56:48;30.40;36.30
68217;DHT22;55037;52.354;4.992;2022-10-16T08:59:16;29.60;38.50
68217;DHT22;55037;52.354;4.992;2022-10-16T09:01:50;29.20;38.40
68217;DHT22;55037;52.354;4.992;2022-10-16T09:04:42;28.30;40.00
68217;DHT22;55037;52.354;4.992;2022-10-16T09:09:59;24.40;46.00
68217;DHT22;55037;52.354;4.992;2022-10-16T09:12:38;22.30;52.50
68217;DHT22;55037;52.354;4.992;2022-10-16T09:23:36;19.70;65.60
68217;DHT22;55037;52.354;4.992;2022-10-16T09:26:05;20.10;67.60
68217;DHT22;55037;52.354;4.992;2022-10-16T09:28:32;21.50;64.10
68217;DHT22;55037;52.354;4.992;2022-10-16T09:30:59;24.40;58.70
68217;DHT22;55037;52.354;4.992;2022-10-16T09:33:34;27.70;49.10
68217;DHT22;55037;52.354;4.992;2022-10-16T09:36:03;30.00;41.70
68217;DHT22;55037;52.354;4.992;2022-10-16T09:38:33;31.30;38.40
68217;DHT22;55037;52.354;4.992;2022-10-16T09:41:03;31.40;35.40
68217;DHT22;55037;52.354;4.992;2022-10-16T09:43:57;30.00;38.10
68217;DHT22;55037;52.354;4.992;2022-10-16T09:46:33;29.80;38.00
68217;DHT22;55037;52.354;4.992;2022-10-16T09:49:03;28.40;39.00
68217;DHT22;55037;52.354;4.992;2022-10-16T09:51:33;26.10;41.50
68217;DHT22;55037;52.354;4.992;2022-10-16T09:54:14;24.70;47.00
68217;DHT22;55037;52.354;4.992;2022-10-16T09:56:42;24.50;50.40
68217;DHT22;55037;52.354;4.992;2022-10-16T09:59:15;24.90;45.70
68217;DHT22;55037;52.354;4.992;2022-10-16T10:01:53;24.00;51.30
68217;DHT22;55037;52.354;4.992;2022-10-16T10:04:23;26.70;46.80
68217;DHT22;55037;52.354;4.992;2022-10-16T10:06:52;28.50;42.60
68217;DHT22;55037;52.354;4.992;2022-10-16T10:09:25;29.60;39.60
68217;DHT22;55037;52.354;4.992;2022-10-16T10:11:53;30.90;37.40
68217;DHT22;55037;52.354;4.992;2022-10-16T10:14:34;31.40;35.50
68217;DHT22;55037;52.354;4.992;2022-10-16T10:20:13;31.60;34.20
68217;DHT22;55037;52.354;4.992;2022-10-16T10:22:31;29.60;35.80
68217;DHT22;55037;52.354;4.992;2022-10-16T10:30:25;34.10;31.90
68217;DHT22;55037;52.354;4.992;2022-10-16T10:42:03;33.00;31.80
68217;DHT22;55037;52.354;4.992;2022-10-16T10:59:08;36.70;24.70
68217;DHT22;55037;52.354;4.992;2022-10-16T11:01:59;35.70;25.50
68217;DHT22;55037;52.354;4.992;2022-10-16T11:07:23;35.10;27.00
68217;DHT22;55037;52.354;4.992;2022-10-16T11:09:57;34.80;26.40
68217;DHT22;55037;52.354;4.992;2022-10-16T11:12:36;35.10;26.50
68217;DHT22;55037;52.354;4.992;2022-10-16T11:15:14;35.50;26.90
68217;DHT22;55037;52.354;4.992;2022-10-16T11:18:00;35.90;25.70
68217;DHT22;55037;52.354;4.992;2022-10-16T11:20:37;36.00;24.60
68217;DHT22;55037;52.354;4.992;2022-10-16T11:26:02;35.80;24.60
68217;DHT22;55037;52.354;4.992;2022-10-16T11:28:51;36.10;24.40
68217;DHT22;55037;52.354;4.992;2022-10-16T11:36:28;36.50;23.80
68217;DHT22;55037;52.354;4.992;2022-10-16T11:39:08;37.50;22.50
68217;DHT22;55037;52.354;4.992;2022-10-16T11:41:52;37.60;21.90
68217;DHT22;55037;52.354;4.992;2022-10-16T11:44:36;36.50;21.30
68217;DHT22;55037;52.354;4.992;2022-10-16T11:47:24;34.30;23.30
68217;DHT22;55037;52.354;4.992;2022-10-16T11:50:39;34.20;24.00
68217;DHT22;55037;52.354;4.992;2022-10-16T11:53:15;34.90;23.60
68217;DHT22;55037;52.354;4.992;2022-10-16T11:55:45;35.40;23.20
68217;DHT22;55037;52.354;4.992;2022-10-16T12:04:49;34.90;22.60
68217;DHT22;55037;52.354;4.992;2022-10-16T12:07:23;34.40;22.40
68217;DHT22;55037;52.354;4.992;2022-10-16T12:09:51;34.40;22.20
68217;DHT22;55037;52.354;4.992;2022-10-16T12:17:56;33.50;20.10
68217;DHT22;55037;52.354;4.992;2022-10-16T12:20:31;33.20;19.90
68217;DHT22;55037;52.354;4.992;2022-10-16T12:23:04;33.90;19.80
68217;DHT22;55037;52.354;4.992;2022-10-16T12:25:37;35.00;19.00
68217;DHT22;55037;52.354;4.992;2022-10-16T12:30:43;37.00;18.20
68217;DHT22;55037;52.354;4.992;2022-10-16T12:33:24;36.50;17.10
68217;DHT22;55037;52.354;4.992;2022-10-16T12:35:53;35.90;18.00
68217;DHT22;55037;52.354;4.992;2022-10-16T12:38:21;36.00;17.50
68217;DHT22;55037;52.354;4.992;2022-10-16T12:41:03;35.50;17.00
68217;DHT22;55037;52.354;4.992;2022-10-16T12:43:41;35.40;17.70
68217;DHT22;55037;52.354;4.992;2022-10-16T12:48:37;35.60;17.70
68217;DHT22;55037;52.354;4.992;2022-10-16T12:57:19;33.80;19.60
68217;DHT22;55037;52.354;4.992;2022-10-16T13:00:09;35.00;19.50
68217;DHT22;55037;52.354;4.992;2022-10-16T13:05:37;35.70;18.30
68217;DHT22;55037;52.354;4.992;2022-10-16T13:11:19;33.80;18.30
68217;DHT22;55037;52.354;4.992;2022-10-16T13:25:01;28.50;23.30
68217;DHT22;55037;52.354;4.992;2022-10-16T13:27:38;27.70;24.70
68217;DHT22;55037;52.354;4.992;2022-10-16T13:30:22;27.40;25.80
68217;DHT22;55037;52.354;4.992;2022-10-16T13:33:20;27.60;25.70
68217;DHT22;55037;52.354;4.992;2022-10-16T13:35:54;27.50;25.80
68217;DHT22;55037;52.354;4.992;2022-10-16T13:38:24;27.10;26.20
68217;DHT22;55037;52.354;4.992;2022-10-16T13:40:56;26.50;28.20
68217;DHT22;55037;52.354;4.992;2022-10-16T13:43:49;25.90;28.50
68217;DHT22;55037;52.354;4.992;2022-10-16T13:46:22;25.40;28.90
68217;DHT22;55037;52.354;4.992;2022-10-16T13:48:57;24.60;30.10
68217;DHT22;55037;52.354;4.992;2022-10-16T13:51:26;24.30;31.50
68217;DHT22;55037;52.354;4.992;2022-10-16T13:53:55;24.00;31.80
68217;DHT22;55037;52.354;4.992;2022-10-16T13:56:27;23.70;32.40
68217;DHT22;55037;52.354;4.992;2022-10-16T13:59:05;23.10;32.70
68217;DHT22;55037;52.354;4.992;2022-10-16T14:01:44;22.90;33.70
68217;DHT22;55037;52.354;4.992;2022-10-16T14:04:12;22.70;34.40
68217;DHT22;55037;52.354;4.992;2022-10-16T14:06:43;22.50;34.80
68217;DHT22;55037;52.354;4.992;2022-10-16T14:09:25;22.20;35.30
68217;DHT22;55037;52.354;4.992;2022-10-16T14:12:03;22.00;35.80
68217;DHT22;55037;52.354;4.992;2022-10-16T14:14:47;21.80;36.60
68217;DHT22;55037;52.354;4.992;2022-10-16T14:17:18;21.50;36.50
68217;DHT22;55037;52.354;4.992;2022-10-16T14:19:47;21.30;37.70
68217;DHT22;55037;52.354;4.992;2022-10-16T14:22:33;21.10;38.70
68217;DHT22;55037;52.354;4.992;2022-10-16T14:30:53;21.00;39.30
68217;DHT22;55037;52.354;4.992;2022-10-16T14:36:06;20.80;39.40
68217;DHT22;55037;52.354;4.992;2022-10-16T14:38:40;20.80;38.80
68217;DHT22;55037;52.354;4.992;2022-10-16T14:41:08;20.70;39.30
68217;DHT22;55037;52.354;4.992;2022-10-16T14:43:41;20.50;40.10
68217;DHT22;55037;52.354;4.992;2022-10-16T14:46:14;20.40;41.70
68217;DHT22;55037;52.354;4.992;2022-10-16T14:48:43;20.20;41.20
68217;DHT22;55037;52.354;4.992;2022-10-16T14:51:18;20.00;41.50
68217;DHT22;55037;52.354;4.992;2022-10-16T14:53:46;19.90;42.20
68217;DHT22;55037;52.354;4.992;2022-10-16T14:56:18;19.80;42.60
68217;DHT22;55037;52.354;4.992;2022-10-16T14:58:45;19.70;42.90
68217;DHT22;55037;52.354;4.992;2022-10-16T15:01:13;19.60;43.30
68217;DHT22;55037;52.354;4.992;2022-10-16T15:03:40;19.50;43.80
68217;DHT22;55037;52.354;4.992;2022-10-16T15:06:11;19.40;44.40
68217;DHT22;55037;52.354;4.992;2022-10-16T15:08:39;19.40;44.80
68217;DHT22;55037;52.354;4.992;2022-10-16T15:11:13;19.30;45.10
68217;DHT22;55037;52.354;4.992;2022-10-16T15:13:41;19.30;45.80
68217;DHT22;55037;52.354;4.992;2022-10-16T15:16:13;19.20;45.70
68217;DHT22;55037;52.354;4.992;2022-10-16T15:18:40;19.10;46.30
68217;DHT22;55037;52.354;4.992;2022-10-16T15:21:08;19.00;47.00
68217;DHT22;55037;52.354;4.992;2022-10-16T15:23:35;19.00;47.60
68217;DHT22;55037;52.354;4.992;2022-10-16T15:26:03;19.00;48.00
68217;DHT22;55037;52.354;4.992;2022-10-16T15:28:30;19.00;48.50
68217;DHT22;55037;52.354;4.992;2022-10-16T15:30:57;18.90;48.90
68217;DHT22;55037;52.354;4.992;2022-10-16T15:33:27;18.90;49.40
68217;DHT22;55037;52.354;4.992;2022-10-16T15:36:05;18.90;50.20
68217;DHT22;55037;52.354;4.992;2022-10-16T15:38:32;18.90;50.50
68217;DHT22;55037;52.354;4.992;2022-10-16T15:40:59;18.90;51.00
68217;DHT22;55037;52.354;4.992;2022-10-16T15:43:26;18.90;51.80
68217;DHT22;55037;52.354;4.992;2022-10-16T15:46:02;18.70;52.40
68217;DHT22;55037;52.354;4.992;2022-10-16T15:48:30;18.70;53.00
68217;DHT22;55037;52.354;4.992;2022-10-16T15:50:59;18.50;53.30
68217;DHT22;55037;52.354;4.992;2022-10-16T15:53:26;19.20;54.70
68217;DHT22;55037;52.354;4.992;2022-10-16T15:55:53;18.50;55.40
68217;DHT22;55037;52.354;4.992;2022-10-16T15:58:21;18.50;56.20
68217;DHT22;55037;52.354;4.992;2022-10-16T16:00:58;18.50;56.00
68217;DHT22;55037;52.354;4.992;2022-10-16T16:03:30;18.40;55.60
68217;DHT22;55037;52.354;4.992;2022-10-16T16:06:04;18.40;56.40
68217;DHT22;55037;52.354;4.992;2022-10-16T16:08:32;18.40;56.40
68217;DHT22;55037;52.354;4.992;2022-10-16T16:11:11;18.40;56.50
68217;DHT22;55037;52.354;4.992;2022-10-16T16:13:39;18.20;57.20
68217;DHT22;55037;52.354;4.992;2022-10-16T16:16:09;18.10;57.60
68217;DHT22;55037;52.354;4.992;2022-10-16T16:18:36;18.00;58.20
68217;DHT22;55037;52.354;4.992;2022-10-16T16:21:04;17.90;59.30
68217;DHT22;55037;52.354;4.992;2022-10-16T16:23:31;17.90;60.00
68217;DHT22;55037;52.354;4.992;2022-10-16T16:26:20;17.80;59.90
68217;DHT22;55037;52.354;4.992;2022-10-16T16:28:50;17.80;60.60
68217;DHT22;55037;52.354;4.992;2022-10-16T16:31:18;17.70;60.80
68217;DHT22;55037;52.354;4.992;2022-10-16T16:33:45;17.60;61.00
68217;DHT22;55037;52.354;4.992;2022-10-16T16:36:13;17.60;61.30
68217;DHT22;55037;52.354;4.992;2022-10-16T16:38:42;17.50;61.80
68217;DHT22;55037;52.354;4.992;2022-10-16T16:41:18;17.50;61.80
68217;DHT22;55037;52.354;4.992;2022-10-16T16:43:46;17.40;62.10
68217;DHT22;55037;52.354;4.992;2022-10-16T16:46:18;17.40;62.40
68217;DHT22;55037;52.354;4.992;2022-10-16T16:48:46;17.40;62.60
68217;DHT22;55037;52.354;4.992;2022-10-16T16:51:15;17.40;63.00
68217;DHT22;55037;52.354;4.992;2022-10-16T16:53:43;17.30;63.40
68217;DHT22;55037;52.354;4.992;2022-10-16T16:56:11;17.30;63.40
68217;DHT22;55037;52.354;4.992;2022-10-16T16:58:39;17.30;63.70
68217;DHT22;55037;52.354;4.992;2022-10-16T17:01:09;17.30;64.00
68217;DHT22;55037;52.354;4.992;2022-10-16T17:03:54;17.20;64.20
68217;DHT22;55037;52.354;4.992;2022-10-16T17:06:27;17.20;64.40
68217;DHT22;55037;52.354;4.992;2022-10-16T17:08:56;17.20;64.80
68217;DHT22;55037;52.354;4.992;2022-10-16T17:11:26;17.20;64.90
68217;DHT22;55037;52.354;4.992;2022-10-16T17:13:55;17.20;65.20
68217;DHT22;55037;52.354;4.992;2022-10-16T17:16:29;17.20;66.60
68217;DHT22;55037;52.354;4.992;2022-10-16T17:18:59;17.10;65.80
68217;DHT22;55037;52.354;4.992;2022-10-16T17:21:27;17.10;66.00
68217;DHT22;55037;52.354;4.992;2022-10-16T17:23:56;17.10;66.10
68217;DHT22;55037;52.354;4.992;2022-10-16T17:26:23;17.10;66.40
68217;DHT22;55037;52.354;4.992;2022-10-16T17:28:52;17.10;66.50
68217;DHT22;55037;52.354;4.992;2022-10-16T17:31:23;17.10;66.70
68217;DHT22;55037;52.354;4.992;2022-10-16T17:33:51;17.10;66.50
68217;DHT22;55037;52.354;4.992;2022-10-16T17:36:19;17.10;66.40
68217;DHT22;55037;52.354;4.992;2022-10-16T17:38:47;17.10;66.50
68217;DHT22;55037;52.354;4.992;2022-10-16T17:41:20;17.10;66.30
68217;DHT22;55037;52.354;4.992;2022-10-16T17:43:49;17.10;66.70
68217;DHT22;55037;52.354;4.992;2022-10-16T17:46:19;17.10;66.80
68217;DHT22;55037;52.354;4.992;2022-10-16T17:48:49;17.10;66.80
68217;DHT22;55037;52.354;4.992;2022-10-16T17:51:19;17.10;66.60
68217;DHT22;55037;52.354;4.992;2022-10-16T17:53:58;17.00;66.80